Time;durP1;ratioP1;P1;durP2;ratioP2;P2;SDS_P1;SDS_P2;PMS_P1;PMS_P2;Temp;Humidity;BMP_temperature;BMP_pressure;BME280_temperature;BME280_humidity;BME280_pressure;Samples;Min_cycle;Max_cycle;Signal;HPM_P1;HPM_P2
2023/01/01 00:01:10;;;;;;;32.60;17.55;;;;;;;19.32;45.16;100730.28;4980643;28;97314;-68
2023/01/01 00:03:36;;;;;;;29.88;18.40;;;;;;;19.33;45.24;100742.72;4988924;28;99052;-68
2023/01/01 00:06:05;;;;;;;37.50;17.83;;;;;;;19.38;44.84;100732.53;4979955;28;99008;-67
2023/01/01 00:08:32;;;;;;;26.77;14.68;;;;;;;19.28;44.66;100743.06;4985064;28;101334;-69
2023/01/01 00:11:00;;;;;;;24.90;14.50;;;;;;;19.20;44.65;100737.38;4983044;28;96852;-69
2023/01/01 00:13:27;;;;;;;29.30;15.10;;;;;;;19.20;44.66;100742.75;4996393;28;96892;-69
2023/01/01 00:15:53;;;;;;;34.00;14.75;;;;;;;19.24;44.76;100743.38;4980273;28;98838;-69
2023/01/01 00:18:21;;;;;;;26.85;13.20;;;;;;;19.42;44.01;100748.28;4984214;28;99201;-69
2023/01/01 00:20:47;;;;;;;23.77;12.52;;;;;;;19.34;44.29;100747.13;4987856;28;97057;-69
2023/01/01 00:23:14;;;;;;;23.05;11.98;;;;;;;19.33;43.90;100743.59;4983657;28;98880;-69
2023/01/01 00:25:40;;;;;;;25.65;10.60;;;;;;;19.34;44.07;100761.38;4984117;28;98941;-68
2023/01/01 00:28:08;;;;;;;22.48;9.90;;;;;;;19.40;43.78;100747.53;4986457;28;97592;-69
2023/01/01 00:30:35;;;;;;;18.48;8.63;;;;;;;19.37;43.41;100746.88;4981130;28;98682;-69
2023/01/01 00:33:01;;;;;;;14.70;8.05;;;;;;;19.45;43.54;100755.22;4983471;28;98809;-67
2023/01/01 00:35:29;;;;;;;17.70;9.23;;;;;;;19.51;43.52;100752.13;4980070;28;99303;-68
2023/01/01 00:37:56;;;;;;;14.25;7.45;;;;;;;19.49;43.21;100757.59;4983504;28;99349;-69
2023/01/01 00:40:23;;;;;;;17.33;6.90;;;;;;;19.42;42.98;100753.66;4982926;28;97744;-70
2023/01/01 00:42:49;;;;;;;20.27;6.22;;;;;;;19.41;42.86;100759.97;4988275;28;97322;-70
2023/01/01 00:45:16;;;;;;;12.45;5.22;;;;;;;19.25;42.95;100759.34;4985206;28;99014;-68
2023/01/01 00:47:42;;;;;;;15.88;6.72;;;;;;;19.41;42.73;100753.75;4980443;28;98906;-72
2023/01/01 00:50:09;;;;;;;17.20;5.35;;;;;;;19.35;42.44;100752.38;4984026;28;96814;-70
2023/01/01 00:52:37;;;;;;;7.50;4.82;;;;;;;19.49;42.09;100756.78;4982402;28;99148;-68
2023/01/01 00:55:03;;;;;;;8.32;4.63;;;;;;;19.43;42.06;100768.72;4977682;28;99552;-69
2023/01/01 00:57:30;;;;;;;23.13;11.93;;;;;;;19.40;41.85;100765.44;4982855;28;97893;-68
2023/01/01 00:59:56;;;;;;;8.02;3.63;;;;;;;19.40;41.61;100763.59;4987128;28;96991;-70
2023/01/01 01:02:23;;;;;;;11.63;3.97;;;;;;;19.35;41.58;100759.56;4978615;28;97087;-68
2023/01/01 01:04:49;;;;;;;8.23;3.33;;;;;;;19.21;41.99;100779.28;4979811;28;105014;-69
2023/01/01 01:07:15;;;;;;;8.43;3.35;;;;;;;19.22;41.73;100777.47;4982191;28;99193;-69
2023/01/01 01:09:43;;;;;;;10.75;2.95;;;;;;;19.22;41.90;100774.78;4987516;28;96783;-68
2023/01/01 01:12:09;;;;;;;8.48;3.00;;;;;;;19.35;41.62;100787.22;4986120;28;97026;-68
2023/01/01 01:14:36;;;;;;;6.15;3.20;;;;;;;19.27;41.55;100786.03;4983356;28;101328;-68
2023/01/01 01:17:02;;;;;;;6.93;3.10;;;;;;;19.26;41.41;100787.84;4980900;28;98926;-68
2023/01/01 01:19:29;;;;;;;13.70;2.95;;;;;;;19.29;41.19;100778.75;4986208;28;97153;-71
2023/01/01 01:21:55;;;;;;;10.05;3.42;;;;;;;19.41;41.07;100777.88;4996106;28;96833;-71
2023/01/01 01:24:22;;;;;;;11.15;3.22;;;;;;;19.70;40.53;100784.69;4978931;28;99636;-71
2023/01/01 01:26:49;;;;;;;12.02;3.50;;;;;;;19.65;40.20;100783.31;4984810;28;100553;-71
2023/01/01 01:29:16;;;;;;;10.07;3.13;;;;;;;19.55;40.25;100793.00;4988568;28;96748;-72
2023/01/01 01:31:42;;;;;;;6.68;2.58;;;;;;;19.46;40.65;100784.63;4985728;28;96944;-71
2023/01/01 01:34:09;;;;;;;11.40;3.72;;;;;;;19.43;40.96;100792.84;4981788;28;99096;-73
2023/01/01 01:36:35;;;;;;;5.90;3.28;;;;;;;19.50;40.74;100791.47;4990049;28;97799;-69
2023/01/01 01:39:01;;;;;;;9.77;3.20;;;;;;;19.43;40.50;100795.53;4980959;28;97201;-68
2023/01/01 01:41:28;;;;;;;8.88;3.03;;;;;;;19.50;40.71;100793.28;4983281;28;96912;-68
2023/01/01 01:43:59;;;;;;;6.65;3.38;;;;;;;19.46;40.73;100787.31;4981111;28;99183;-69
2023/01/01 01:46:32;;;;;;;8.95;3.38;;;;;;;19.44;40.81;100802.59;4988759;28;98854;-69
2023/01/01 01:49:03;;;;;;;7.78;3.65;;;;;;;19.49;40.34;100779.03;4984426;28;96871;-69
2023/01/01 01:51:34;;;;;;;10.98;4.60;;;;;;;19.42;40.25;100783.13;4985322;28;96944;-67
2023/01/01 01:54:04;;;;;;;4.25;3.05;;;;;;;19.42;40.30;100782.25;4984698;28;99000;-68
2023/01/01 01:56:39;;;;;;;10.43;3.28;;;;;;;19.39;40.26;100787.81;4983537;28;98864;-69
2023/01/01 01:59:06;;;;;;;8.07;3.65;;;;;;;19.47;39.88;100789.03;4980006;28;96879;-68
2023/01/01 02:01:33;;;;;;;8.65;3.20;;;;;;;19.65;40.25;100780.63;4987724;28;97638;-68
2023/01/01 02:04:01;;;;;;;5.10;3.03;;;;;;;19.71;39.81;100788.22;4987919;28;98918;-68
2023/01/01 02:06:29;;;;;;;8.10;2.75;;;;;;;19.52;39.89;100782.47;4989644;28;98732;-67
2023/01/01 02:08:58;;;;;;;11.63;3.40;;;;;;;19.63;39.82;100796.81;4983994;28;96832;-67
2023/01/01 02:11:24;;;;;;;8.35;3.22;;;;;;;19.36;39.95;100791.56;4985690;28;96953;-67
2023/01/01 02:13:53;;;;;;;7.18;3.50;;;;;;;19.48;40.03;100798.78;4984812;28;99422;-69
2023/01/01 02:16:27;;;;;;;9.57;3.53;;;;;;;19.59;40.02;100808.72;4988212;28;98976;-67
2023/01/01 02:19:00;;;;;;;10.02;2.97;;;;;;;19.56;39.51;100795.53;4980865;28;97430;-68
2023/01/01 02:21:31;;;;;;;10.98;3.30;;;;;;;19.56;39.84;100794.72;4991995;28;97531;-67
2023/01/01 02:24:20;;;;;;;7.70;3.30;;;;;;;19.57;39.40;100789.22;4988350;28;98943;-68
2023/01/01 02:26:52;;;;;;;9.60;3.17;;;;;;;19.57;39.56;100791.91;4984802;28;98713;-68
2023/01/01 02:29:37;;;;;;;9.80;3.35;;;;;;;19.64;39.16;100786.94;4982227;28;96775;-68
2023/01/01 02:32:08;;;;;;;8.73;3.38;;;;;;;19.45;39.67;100800.78;4983820;28;96927;-69
2023/01/01 02:34:39;;;;;;;9.13;3.55;;;;;;;19.48;39.73;100779.19;4985531;28;98909;-67
2023/01/01 02:37:08;;;;;;;10.82;3.50;;;;;;;19.48;39.84;100787.22;4988911;28;99198;-69
2023/01/01 02:39:39;;;;;;;8.25;3.38;;;;;;;19.24;39.81;100778.19;4988861;28;97015;-68
2023/01/01 02:42:07;;;;;;;8.32;3.30;;;;;;;19.30;39.74;100772.41;4988570;28;97654;-68
2023/01/01 02:44:40;;;;;;;14.02;4.00;;;;;;;19.36;39.67;100774.66;4987429;28;101803;-69
2023/01/01 02:47:09;;;;;;;13.65;3.25;;;;;;;19.33;39.67;100775.72;4983381;28;98979;-68
2023/01/01 02:49:40;;;;;;;12.88;3.22;;;;;;;19.17;39.85;100772.41;4990871;28;97527;-68
2023/01/01 02:52:11;;;;;;;11.93;4.03;;;;;;;19.05;40.32;100771.47;4985703;28;97965;-70
2023/01/01 02:54:45;;;;;;;10.88;3.30;;;;;;;19.23;39.86;100768.47;4984797;28;97685;-71
2023/01/01 02:57:24;;;;;;;6.95;3.67;;;;;;;19.17;40.33;100772.41;4978640;28;98886;-70
2023/01/01 03:00:23;;;;;;;14.02;3.80;;;;;;;19.08;40.05;100767.72;4979353;28;96871;-70
2023/01/01 03:03:02;;;;;;;8.45;3.72;;;;;;;19.12;40.09;100763.84;4985162;28;98594;-70
2023/01/01 03:05:34;;;;;;;12.10;3.80;;;;;;;18.96;40.41;100773.94;4981072;28;99175;-71
2023/01/01 03:08:07;;;;;;;10.70;3.80;;;;;;;18.83;40.67;100779.28;4991650;28;99122;-70
2023/01/01 03:10:41;;;;;;;9.73;4.15;;;;;;;18.88;40.54;100777.16;4991305;28;96760;-71
2023/01/01 03:13:15;;;;;;;11.23;4.82;;;;;;;18.99;40.39;100792.47;4986010;28;97463;-71
2023/01/01 03:15:49;;;;;;;7.40;3.65;;;;;;;18.87;40.62;100779.94;4989206;28;97874;-72
2023/01/01 03:18:20;;;;;;;9.13;3.75;;;;;;;18.86;40.68;100791.59;4985629;28;100114;-71
2023/01/01 03:20:52;;;;;;;6.72;3.67;;;;;;;18.82;40.58;100787.44;4995283;28;97341;-70
2023/01/01 03:23:25;;;;;;;8.20;3.75;;;;;;;18.86;40.85;100778.22;4983535;28;97370;-71
2023/01/01 03:25:57;;;;;;;10.43;4.03;;;;;;;18.82;40.51;100790.97;4979071;28;99391;-72
2023/01/01 03:28:28;;;;;;;7.80;3.20;;;;;;;18.85;40.87;100792.56;4980976;28;98631;-72
2023/01/01 03:30:58;;;;;;;12.88;3.75;;;;;;;18.77;40.74;100795.78;4980751;28;99214;-71
2023/01/01 03:33:32;;;;;;;7.53;3.58;;;;;;;19.04;40.52;100795.66;4980771;28;96973;-71
2023/01/01 03:36:02;;;;;;;9.00;3.17;;;;;;;19.06;40.38;100775.00;4980215;28;97834;-70
2023/01/01 03:38:31;;;;;;;9.90;3.47;;;;;;;19.01;40.34;100778.00;4982239;28;98453;-70
2023/01/01 03:41:03;;;;;;;7.28;2.83;;;;;;;19.10;40.19;100781.84;4982610;28;98718;-71
2023/01/01 03:43:39;;;;;;;14.52;3.47;;;;;;;18.95;40.38;100778.44;4978270;28;98399;-71
2023/01/01 03:46:11;;;;;;;8.45;3.03;;;;;;;18.80;40.81;100794.69;4977728;28;100173;-72
2023/01/01 03:49:00;;;;;;;15.07;3.55;;;;;;;18.85;40.72;100796.09;4979969;28;98259;-71
2023/01/01 03:51:40;;;;;;;11.20;3.25;;;;;;;18.90;40.55;100796.66;4980529;28;97769;-71
2023/01/01 03:54:14;;;;;;;10.63;4.20;;;;;;;18.74;40.83;100800.47;4980230;28;97128;-70
2023/01/01 03:56:45;;;;;;;11.00;3.10;;;;;;;18.79;41.03;100804.53;4981743;28;98389;-70
2023/01/01 03:59:18;;;;;;;9.43;3.50;;;;;;;18.93;40.57;100822.34;4978424;28;99570;-72
2023/01/01 04:01:58;;;;;;;8.32;3.65;;;;;;;18.87;40.71;100822.75;4980669;28;97050;-71
2023/01/01 04:04:26;;;;;;;8.73;3.70;;;;;;;18.80;40.82;100824.13;4978608;28;97179;-72
2023/01/01 04:06:54;;;;;;;15.95;3.85;;;;;;;18.77;40.95;100833.25;4978631;28;99131;-71
2023/01/01 04:09:28;;;;;;;12.30;2.97;;;;;;;18.85;40.58;100832.72;4979240;28;103784;-73
2023/01/01 04:12:04;;;;;;;10.32;3.45;;;;;;;18.84;40.83;100836.38;4979164;28;98387;-73
2023/01/01 04:14:33;;;;;;;;;;;;;;;18.81;40.58;100845.47;4977952;28;97016;-73
2023/01/01 04:17:03;;;;;;;12.75;3.60;;;;;;;18.84;40.55;100842.56;4978052;28;100156;-72
2023/01/01 04:19:31;;;;;;;11.63;4.13;;;;;;;18.98;40.59;100841.63;4979890;28;98653;-72
2023/01/01 04:22:09;;;;;;;7.55;3.70;;;;;;;18.91;40.29;100848.34;4976985;28;99262;-73
2023/01/01 04:24:37;;;;;;;11.27;3.17;;;;;;;18.99;40.26;100849.56;4978470;28;98821;-74
2023/01/01 04:27:04;;;;;;;12.05;3.65;;;;;;;18.94;40.20;100848.16;4978956;28;97974;-73
2023/01/01 04:29:40;;;;;;;8.95;2.95;;;;;;;19.05;40.41;100848.25;4975515;28;98535;-74
2023/01/01 04:32:12;;;;;;;8.70;3.88;;;;;;;18.90;40.46;100852.00;4978225;28;97056;-72
2023/01/01 04:34:44;;;;;;;6.72;2.92;;;;;;;18.91;40.41;100848.34;4978557;28;97105;-72
2023/01/01 04:37:11;;;;;;;14.32;3.13;;;;;;;18.86;40.31;100855.84;4978276;28;99003;-73
2023/01/01 04:39:44;;;;;;;9.63;3.55;;;;;;;18.96;40.17;100856.94;4976904;28;99011;-75
2023/01/01 04:42:14;;;;;;;12.82;3.95;;;;;;;19.01;40.05;100852.13;4976162;28;97028;-72
2023/01/01 04:44:41;;;;;;;9.35;4.43;;;;;;;19.00;40.31;100851.28;4979099;28;97214;-71
2023/01/01 04:47:09;;;;;;;6.40;3.38;;;;;;;18.98;40.29;100866.56;4975723;28;99299;-71
2023/01/01 04:49:40;;;;;;;8.65;3.88;;;;;;;18.76;40.65;100855.63;4978169;28;99183;-72
2023/01/01 04:52:12;;;;;;;7.93;3.67;;;;;;;18.84;40.80;100863.97;4978313;28;96841;-72
2023/01/01 04:54:38;;;;;;;12.55;3.88;;;;;;;18.81;40.47;100860.66;4979301;28;96993;-71
2023/01/01 04:57:05;;;;;;;12.90;4.00;;;;;;;18.90;40.29;100863.59;4978526;28;98895;-71
2023/01/01 04:59:38;;;;;;;10.65;3.28;;;;;;;18.73;40.91;100860.31;4975746;28;98785;-72
2023/01/01 05:02:06;;;;;;;10.85;4.00;;;;;;;18.83;40.72;100864.09;4977566;28;98401;-72
2023/01/01 05:04:36;;;;;;;7.65;3.17;;;;;;;18.73;40.60;100854.97;4980156;28;97144;-73
2023/01/01 05:07:23;;;;;;;9.85;3.55;;;;;;;18.71;40.65;100861.28;4974358;28;98321;-73
2023/01/01 05:09:56;;;;;;;12.93;3.70;;;;;;;18.78;40.61;100866.22;4978175;28;97718;-73
2023/01/01 05:12:23;;;;;;;9.90;3.22;;;;;;;18.73;40.71;100865.66;4976804;28;97193;-74
2023/01/01 05:14:50;;;;;;;8.98;3.33;;;;;;;18.66;40.82;100866.09;4976881;28;96990;-73
2023/01/01 05:17:17;;;;;;;10.75;3.42;;;;;;;18.74;40.55;100870.06;4979928;28;98973;-73
2023/01/01 05:19:46;;;;;;;9.85;3.55;;;;;;;18.76;40.56;100868.16;4978875;28;99421;-71
2023/01/01 05:22:13;;;;;;;7.60;2.85;;;;;;;18.85;40.49;100867.50;4973262;28;97612;-73
2023/01/01 05:24:46;;;;;;;8.55;3.13;;;;;;;18.81;40.68;100880.25;4975788;28;98539;-72
2023/01/01 05:27:16;;;;;;;11.40;3.05;;;;;;;18.54;40.99;100882.06;4979336;28;98660;-73
2023/01/01 05:29:42;;;;;;;5.68;3.00;;;;;;;18.43;41.21;100877.44;4978222;28;98052;-70
2023/01/01 05:32:09;;;;;;;8.70;3.42;;;;;;;18.41;41.35;100887.38;4978778;28;96846;-72
2023/01/01 05:34:36;;;;;;;11.55;3.17;;;;;;;18.48;41.21;100880.66;4975395;28;99451;-71
2023/01/01 05:37:24;;;;;;;11.93;3.40;;;;;;;18.59;41.08;100893.34;4979759;28;98146;-72
2023/01/01 05:39:55;;;;;;;8.73;2.88;;;;;;;18.49;41.27;100884.19;4977063;28;98015;-72
2023/01/01 05:42:24;;;;;;;11.45;3.08;;;;;;;18.64;40.98;100883.22;4983966;28;97019;-71
2023/01/01 05:44:51;;;;;;;8.80;3.33;;;;;;;18.84;40.53;100887.25;4978641;28;98834;-72
2023/01/01 05:47:20;;;;;;;11.55;2.75;;;;;;;18.70;40.82;100891.69;4984403;28;97737;-71
2023/01/01 05:49:48;;;;;;;7.13;2.40;;;;;;;18.53;40.99;100883.88;4980641;28;97708;-71
2023/01/01 05:52:17;;;;;;;9.57;3.13;;;;;;;18.57;41.42;100882.78;4982712;28;97270;-72
2023/01/01 05:54:44;;;;;;;10.48;2.75;;;;;;;18.54;41.28;100884.75;4981970;28;96851;-72
2023/01/01 05:57:12;;;;;;;6.80;2.65;;;;;;;18.55;41.12;100889.16;4980347;28;101391;-71
2023/01/01 05:59:39;;;;;;;3.70;2.17;;;;;;;18.67;41.09;100885.69;4980988;28;98885;-71
2023/01/01 06:02:05;;;;;;;5.40;2.75;;;;;;;18.64;41.28;100888.56;4981144;28;98950;-71
2023/01/01 06:04:32;;;;;;;5.18;2.60;;;;;;;18.60;41.37;100890.59;4979521;28;98000;-74
2023/01/01 06:06:59;;;;;;;6.75;2.85;;;;;;;18.52;41.50;100892.88;4982914;28;98011;-74
2023/01/01 06:09:28;;;;;;;7.75;2.53;;;;;;;18.62;41.13;100890.50;4980361;28;98055;-72
2023/01/01 06:11:55;;;;;;;10.68;2.45;;;;;;;18.53;41.26;100891.91;4979771;28;96800;-72
2023/01/01 06:14:22;;;;;;;8.02;2.45;;;;;;;18.44;41.32;100887.19;4979858;28;99602;-73
2023/01/01 06:16:48;;;;;;;12.48;2.50;;;;;;;18.62;41.31;100888.66;4978847;28;98857;-72
2023/01/01 06:19:15;;;;;;;6.50;2.28;;;;;;;18.52;41.29;100895.53;4980402;28;100235;-72
2023/01/01 06:21:44;;;;;;;8.35;2.25;;;;;;;18.26;41.65;100901.75;4977362;28;96855;-72
2023/01/01 06:24:17;;;;;;;5.78;2.47;;;;;;;18.32;41.59;100902.19;4978687;28;98823;-73
2023/01/01 06:26:45;;;;;;;8.15;1.98;;;;;;;18.32;41.53;100893.31;4980002;28;99832;-72
2023/01/01 06:29:11;;;;;;;11.63;2.83;;;;;;;18.31;41.62;100911.19;4979078;28;101674;-72
2023/01/01 06:31:38;;;;;;;14.65;2.42;;;;;;;18.67;41.19;100907.94;4978128;28;96794;-73
2023/01/01 06:34:05;;;;;;;6.05;2.50;;;;;;;18.56;41.17;100899.78;4977984;28;99173;-72
2023/01/01 06:36:32;;;;;;;6.70;2.90;;;;;;;18.47;41.35;100905.69;4981482;28;101772;-72
2023/01/01 06:39:00;;;;;;;15.30;2.17;;;;;;;18.44;41.54;100899.72;4981084;28;97903;-71
2023/01/01 06:41:29;;;;;;;9.38;2.78;;;;;;;18.32;41.63;100896.84;4982370;28;97174;-72
2023/01/01 06:44:00;;;;;;;8.32;2.70;;;;;;;18.32;41.92;100912.03;4981201;28;98783;-72
2023/01/01 06:46:29;;;;;;;9.45;2.25;;;;;;;18.24;41.95;100907.22;4979722;28;97570;-71
2023/01/01 06:48:57;;;;;;;9.48;2.35;;;;;;;18.16;42.07;100916.69;4978372;28;98748;-71
2023/01/01 06:51:25;;;;;;;10.98;2.40;;;;;;;18.34;42.02;100915.47;4981240;28;97699;-71
2023/01/01 06:53:53;;;;;;;9.65;2.10;;;;;;;18.41;41.63;100934.66;4980435;28;98625;-71
2023/01/01 06:56:20;;;;;;;7.22;2.53;;;;;;;18.31;42.07;100921.06;4980976;28;102358;-72
2023/01/01 06:58:47;;;;;;;7.28;2.80;;;;;;;18.28;42.02;100924.78;4977470;28;100662;-72
2023/01/01 07:01:16;;;;;;;8.50;2.72;;;;;;;18.15;42.34;100931.88;4979076;28;98776;-72
2023/01/01 07:03:44;;;;;;;9.55;2.80;;;;;;;18.33;41.89;100925.31;4982289;28;97787;-71
2023/01/01 07:06:11;;;;;;;6.80;2.53;;;;;;;18.39;41.81;100929.41;4979606;28;98984;-72
2023/01/01 07:08:38;;;;;;;6.47;2.42;;;;;;;18.44;41.95;100935.34;4982298;28;98094;-72
2023/01/01 07:11:04;;;;;;;6.38;2.35;;;;;;;18.26;41.88;100928.50;4981603;28;99252;-72
2023/01/01 07:13:31;;;;;;;7.90;2.75;;;;;;;18.13;42.21;100932.91;4981544;28;97211;-72
2023/01/01 07:15:58;;;;;;;7.43;2.50;;;;;;;18.13;42.39;100940.94;4981421;28;99171;-71
2023/01/01 07:18:26;;;;;;;9.68;2.50;;;;;;;18.33;42.14;100932.47;4980373;28;99121;-72
2023/01/01 07:20:55;;;;;;;7.05;2.50;;;;;;;18.22;42.22;100946.56;4981505;28;98807;-72
2023/01/01 07:23:21;;;;;;;6.72;2.42;;;;;;;18.34;41.94;100955.59;4978590;28;99423;-71
2023/01/01 07:25:49;;;;;;;6.88;2.80;;;;;;;18.41;41.91;100951.59;4979512;28;102584;-72
2023/01/01 07:28:15;;;;;;;5.82;2.30;;;;;;;18.40;41.79;100949.88;4979128;28;99235;-72
2023/01/01 07:30:42;;;;;;;9.27;3.13;;;;;;;18.39;41.99;100961.50;4977675;28;98430;-71
2023/01/01 07:33:11;;;;;;;8.52;2.75;;;;;;;18.48;41.81;100977.00;4981718;28;97614;-73
2023/01/01 07:35:39;;;;;;;6.10;2.58;;;;;;;18.48;41.59;100970.78;4976789;28;98879;-70
2023/01/01 07:38:05;;;;;;;5.85;2.60;;;;;;;18.39;41.95;100966.88;4981146;28;99585;-72
2023/01/01 07:40:31;;;;;;;9.10;3.22;;;;;;;18.35;42.03;100968.03;4979511;28;96849;-70
2023/01/01 07:42:58;;;;;;;9.13;2.97;;;;;;;18.44;41.98;100967.47;4981527;28;98378;-70
2023/01/01 07:45:25;;;;;;;7.68;2.67;;;;;;;18.44;41.93;100972.81;4979417;28;98895;-70
2023/01/01 07:47:54;;;;;;;15.43;3.25;;;;;;;18.46;41.59;100973.53;4980439;28;97481;-71
2023/01/01 07:50:22;;;;;;;14.73;3.28;;;;;;;18.54;41.61;100975.72;4979392;28;96872;-71
2023/01/01 07:52:50;;;;;;;6.35;3.20;;;;;;;18.64;41.50;100984.94;4981257;28;96882;-71
2023/01/01 07:55:18;;;;;;;6.93;2.75;;;;;;;18.49;41.73;101000.13;4977216;28;99437;-70
2023/01/01 07:57:45;;;;;;;9.15;3.05;;;;;;;18.36;42.03;101009.03;4980418;28;99063;-70
2023/01/01 08:00:15;;;;;;;10.32;3.10;;;;;;;18.48;41.83;101000.22;4976792;28;98623;-70
2023/01/01 08:02:41;;;;;;;7.30;2.70;;;;;;;18.45;41.90;100997.72;4977863;28;97743;-70
2023/01/01 08:05:08;;;;;;;8.77;3.17;;;;;;;18.62;41.45;101006.44;4977674;28;99076;-70
2023/01/01 08:07:35;;;;;;;7.30;3.40;;;;;;;18.60;41.58;101004.81;4978810;28;98863;-71
2023/01/01 08:10:03;;;;;;;12.02;3.08;;;;;;;18.40;41.80;101022.09;4980539;28;97009;-70
2023/01/01 08:12:29;;;;;;;8.23;3.10;;;;;;;18.54;41.83;100997.13;4978957;28;97319;-70
2023/01/01 08:14:56;;;;;;;10.43;3.53;;;;;;;18.65;41.71;101014.25;4982331;28;99085;-70
2023/01/01 08:17:22;;;;;;;10.98;3.25;;;;;;;18.76;41.13;101007.34;4981334;28;98804;-71
2023/01/01 08:19:49;;;;;;;6.95;3.67;;;;;;;18.74;41.13;100995.88;4979347;28;97602;-71
2023/01/01 08:22:16;;;;;;;8.27;3.55;;;;;;;18.65;41.46;101006.22;4979018;28;97793;-71
2023/01/01 08:24:43;;;;;;;8.05;3.42;;;;;;;18.63;41.84;101007.28;4979101;28;98877;-71
2023/01/01 08:27:13;;;;;;;10.80;3.97;;;;;;;18.75;41.23;101010.97;4976513;28;98964;-71
2023/01/01 08:29:39;;;;;;;8.20;3.17;;;;;;;18.82;41.34;101017.66;4974709;28;97267;-70
2023/01/01 08:32:06;;;;;;;8.55;3.83;;;;;;;18.80;41.38;101019.56;4978739;28;97880;-70
2023/01/01 08:34:32;;;;;;;7.53;3.33;;;;;;;19.01;41.06;101037.78;4981151;28;99746;-71
2023/01/01 08:36:59;;;;;;;7.75;3.05;;;;;;;18.70;41.46;101035.38;4976748;28;99004;-70
2023/01/01 08:39:26;;;;;;;6.63;2.85;;;;;;;19.02;41.07;101019.88;4979959;28;97159;-70
2023/01/01 08:41:52;;;;;;;12.73;4.25;;;;;;;18.98;41.03;101034.41;4981252;28;96932;-71
2023/01/01 08:44:20;;;;;;;11.20;3.75;;;;;;;18.91;41.27;101035.78;4977685;28;99063;-71
2023/01/01 08:46:47;;;;;;;7.85;3.17;;;;;;;18.97;41.15;101038.09;4977238;28;99690;-71
2023/01/01 08:49:13;;;;;;;8.05;3.10;;;;;;;18.89;41.47;101046.63;4977295;28;96926;-71
2023/01/01 08:51:39;;;;;;;7.18;3.65;;;;;;;18.96;41.17;101047.06;4979261;28;97237;-71
2023/01/01 08:54:06;;;;;;;9.63;3.38;;;;;;;19.07;40.95;101052.56;4978966;28;98837;-70
2023/01/01 08:56:33;;;;;;;10.02;3.65;;;;;;;19.00;41.20;101052.13;4979930;28;97973;-71
2023/01/01 08:59:00;;;;;;;12.75;3.60;;;;;;;18.94;41.37;101051.66;4977989;28;98486;-71
2023/01/01 09:01:30;;;;;;;7.78;3.38;;;;;;;18.96;41.33;101041.72;4978258;28;98349;-71
2023/01/01 09:03:56;;;;;;;7.70;3.90;;;;;;;19.10;41.13;101060.38;4975853;28;98819;-71
2023/01/01 09:06:23;;;;;;;11.48;3.75;;;;;;;18.94;41.49;101057.00;4978290;28;102528;-70
2023/01/01 09:08:50;;;;;;;5.68;3.13;;;;;;;18.86;41.68;101068.22;4979546;28;96970;-71
2023/01/01 09:11:22;;;;;;;8.45;3.53;;;;;;;18.92;41.70;101078.53;4978440;28;96853;-70
2023/01/01 09:13:49;;;;;;;9.00;3.15;;;;;;;18.74;42.02;101086.88;4977195;28;99267;-71
2023/01/01 09:16:15;;;;;;;5.13;3.05;;;;;;;18.76;41.93;101099.22;4979308;28;99358;-71
2023/01/01 09:18:43;;;;;;;11.20;4.10;;;;;;;18.94;41.71;101081.13;4982667;28;96935;-70
2023/01/01 09:21:09;;;;;;;7.10;2.95;;;;;;;18.80;41.75;101090.03;4982311;28;97224;-72
2023/01/01 09:23:36;;;;;;;8.68;3.25;;;;;;;18.88;41.84;101103.78;4981341;28;98990;-72
2023/01/01 09:26:03;;;;;;;11.00;3.03;;;;;;;18.88;41.87;101110.97;4982579;28;98930;-71
2023/01/01 09:28:30;;;;;;;7.13;2.88;;;;;;;19.06;41.56;101121.34;4983182;28;97394;-72
2023/01/01 09:30:56;;;;;;;8.80;3.15;;;;;;;18.98;41.50;101114.75;4980716;28;96813;-72
2023/01/01 09:33:23;;;;;;;7.03;3.40;;;;;;;18.96;41.60;101111.34;4981911;28;102327;-71
2023/01/01 09:35:50;;;;;;;8.00;3.25;;;;;;;19.00;41.65;101112.84;4981801;28;99168;-71
2023/01/01 09:38:17;;;;;;;4.65;2.80;;;;;;;19.02;41.60;101117.16;4981254;28;98005;-71
2023/01/01 09:40:54;;;;;;;8.88;3.00;;;;;;;18.92;41.87;101118.69;4981212;28;97296;-72
2023/01/01 09:43:30;;;;;;;6.85;2.95;;;;;;;19.01;41.74;101117.25;4980804;28;98545;-72
2023/01/01 09:45:58;;;;;;;;;;;;;;;19.01;41.48;101111.91;4981434;28;98928;-71
2023/01/01 09:48:27;;;;;;;6.90;2.97;;;;;;;19.24;41.49;101111.25;4982543;28;97862;-72
2023/01/01 09:50:55;;;;;;;7.80;3.60;;;;;;;19.29;41.06;101114.50;4981828;28;96970;-73
2023/01/01 09:53:29;;;;;;;8.45;2.70;;;;;;;19.36;41.13;101125.66;4980289;28;99064;-71
2023/01/01 09:55:58;;;;;;;6.25;3.17;;;;;;;19.52;41.00;101122.84;4980574;28;99013;-71
2023/01/01 09:58:27;;;;;;;7.63;2.90;;;;;;;19.50;40.69;101113.09;4984953;28;98855;-71
2023/01/01 10:00:57;;;;;;;10.15;3.05;;;;;;;19.45;41.06;101119.69;4979005;28;97494;-71
2023/01/01 10:03:37;;;;;;;8.18;3.13;;;;;;;19.59;40.92;101121.47;4978617;28;99341;-70
2023/01/01 10:06:19;;;;;;;9.45;2.83;;;;;;;19.77;40.29;101114.88;4980288;28;102103;-71
2023/01/01 10:09:01;;;;;;;6.47;2.50;;;;;;;19.81;40.55;101116.41;4982760;28;98820;-71
2023/01/01 10:11:42;;;;;;;5.70;2.55;;;;;;;19.84;40.49;101129.59;4981607;28;97333;-71
2023/01/01 10:14:17;;;;;;;3.45;2.25;;;;;;;19.81;40.36;101141.41;4982527;28;98986;-72
2023/01/01 10:16:48;;;;;;;6.03;2.58;;;;;;;19.69;40.57;101141.38;4983323;28;98710;-71
2023/01/01 10:19:24;;;;;;;7.88;2.83;;;;;;;19.68;40.66;101132.47;4981922;28;97190;-70
2023/01/01 10:21:55;;;;;;;7.30;2.63;;;;;;;19.71;40.90;101131.38;4980696;28;98902;-69
2023/01/01 10:24:35;;;;;;;8.88;3.10;;;;;;;19.67;40.61;101132.56;4978739;28;98892;-69
2023/01/01 10:27:04;;;;;;;5.88;2.50;;;;;;;19.54;40.64;101145.06;4980654;28;97590;-70
2023/01/01 10:29:38;;;;;;;8.05;3.08;;;;;;;19.52;41.06;101134.44;4983013;28;97642;-71
2023/01/01 10:32:18;;;;;;;6.22;2.67;;;;;;;19.62;41.02;101138.22;4980194;28;96870;-72
2023/01/01 10:34:44;;;;;;;6.50;2.60;;;;;;;19.47;41.13;101149.97;4981560;28;100909;-72
2023/01/01 10:37:13;;;;;;;6.63;2.20;;;;;;;19.37;41.21;101143.44;4977131;28;98802;-71
2023/01/01 10:39:40;;;;;;;8.93;2.40;;;;;;;19.23;41.59;101157.75;4980716;28;97341;-71
2023/01/01 10:42:07;;;;;;;7.65;2.17;;;;;;;19.31;41.39;101155.44;4980188;28;97789;-70
2023/01/01 10:44:35;;;;;;;5.28;2.28;;;;;;;19.47;41.31;101161.56;4980488;28;99017;-71
2023/01/01 10:47:27;;;;;;;8.98;2.25;;;;;;;19.52;41.16;101157.69;4977937;28;100670;-73
2023/01/01 10:49:55;;;;;;;5.53;2.05;;;;;;;19.53;41.00;101159.41;4980662;28;96867;-71
2023/01/01 10:52:27;;;;;;;7.95;2.65;;;;;;;19.52;40.63;101158.56;4978859;28;98836;-71
2023/01/01 10:54:54;;;;;;;6.60;2.30;;;;;;;19.75;40.33;101139.13;4982139;28;100021;-71
2023/01/01 10:57:31;;;;;;;6.35;2.40;;;;;;;19.68;40.56;101153.03;4982381;28;98816;-71
2023/01/01 11:00:16;;;;;;;7.97;2.22;;;;;;;19.81;40.61;101140.53;4980704;28;98615;-71
2023/01/01 11:02:42;;;;;;;3.25;1.80;;;;;;;19.71;40.32;101160.88;4980137;28;97633;-71
2023/01/01 11:05:15;;;;;;;4.18;2.08;;;;;;;19.65;40.69;101153.22;4976560;28;98769;-72
2023/01/01 11:07:44;;;;;;;5.20;2.28;;;;;;;19.53;40.95;101172.81;4980271;28;100174;-71
2023/01/01 11:10:19;;;;;;;5.15;2.38;;;;;;;19.52;40.68;101184.50;4977845;28;96992;-72
2023/01/01 11:12:46;;;;;;;4.57;2.00;;;;;;;19.40;41.18;101181.63;4981332;28;97358;-71
2023/01/01 11:15:22;;;;;;;6.00;2.03;;;;;;;19.59;40.64;101188.50;4978451;28;99244;-71
2023/01/01 11:17:49;;;;;;;3.92;1.83;;;;;;;19.49;40.58;101186.41;4976162;28;99548;-70
2023/01/01 11:20:19;;;;;;;9.13;2.28;;;;;;;19.19;41.32;101188.38;4978431;28;98958;-70
2023/01/01 11:22:51;;;;;;;4.47;1.92;;;;;;;19.08;41.38;101194.44;4976311;28;99041;-70
2023/01/01 11:25:25;;;;;;;5.40;1.88;;;;;;;19.18;41.56;101213.44;4975274;28;100017;-70
2023/01/01 11:27:53;;;;;;;2.95;1.77;;;;;;;19.13;41.48;101210.19;4980894;28;97966;-68
2023/01/01 11:30:22;;;;;;;3.67;1.92;;;;;;;19.41;40.88;101190.53;4976273;28;98458;-70
2023/01/01 11:32:51;;;;;;;4.80;2.17;;;;;;;19.33;41.02;101192.84;4978424;28;96939;-69